This “Stock Picks Under $50” board lists the growth stocks as they breakout from our potential growth stocks breakout watch list. These stocks display decent fundamental and technical qualities and priced under $50 or even under $10 or $5. The stocks will be kept in open positions as they don’t trigger the sell rules. The stop-loss level is -8%, and we follow that one rule without any reservations. Click the “Details” link to view the analysis, buying price ranges, stop-loss level, sell rule projection and other details.

Ticker Name Curr Price Ent Price Ent Date Gain Details
PATK Patrick Industries Inc. 46.57 46.57 07-10-14 0.00 Details
GFN General Finance Corporation 9.77 9.77 07-10-14 0.00 Details
ATHL Athlon Energy Inc. 48.42 48.42 07-10-14 0.00 Details
TEP Tallgrass Energy Partners, LP 41.96 41.96 07-10-14 0.00 Details
TAX JTH Holding, Inc. 33.80 33.80 07-10-14 0.00 Details
PTSI P.A.M. Transportation Services, Inc 29.50 29.50 07-10-14 0.00 Details
GPRE Green Plains Renewable Energy, Inc. 35.30 35.30 07-10-14 0.00 Details
REGN Regeneron Pharmaceuticals, Inc. 310.93 310.93 07-10-14 0.00 Details
OCIR OCI Resources LP 25.47 25.44 07-07-14 0.12 Details
LGIH LGI Homes, Inc. 18.59 19.29 07-07-14 -3.63 Details
JBSS John B Sanfilippo & Son Inc. 27.07 27.68 07-07-14 -2.20 Details
BBNK Bridge Capital Holdings 24.25 24.58 07-07-14 -1.34 Details
CGNX Cognex Corporation 39.52 39.73 07-07-14 -0.53 Details
CDNS Cadence Design Systems, Inc. 17.11 17.56 07-03-14 -2.56 Details
EEFT Euronet Worldwide Inc. 47.68 49.79 07-03-14 -4.24 Details
PTC PTC Inc. 38.43 38.99 07-03-14 -1.44 Details
SUSP Susser Petroleum Partners LP 48.86 47.69 07-03-14 2.45 Details
ENV Envestnet, Inc. 46.43 48.79 07-03-14 -4.84 Details
WWAV The WhiteWave Foods Company 31.01 32.27 07-03-14 -3.90 Details
CTCT Constant Contact, Inc. 32.00 33.31 07-03-14 -3.93 Details
IDTI Integrated Device Technology, Inc. 15.45 15.56 07-03-14 -0.71 Details
LDL Lydall Inc. 26.49 28.30 07-02-14 -6.40 Details
ESCA Escalade Inc. 16.83 16.04 07-02-14 4.93 Details
GMK Gruma S.A.B. de CV 47.49 47.80 07-02-14 -0.65 Details
TRN Trinity Industries Inc. 44.53 44.88 07-02-14 -0.78 Details
BMA Banco Macro S.A. 42.62 38.51 07-02-14 10.67 Details
THRM Gentherm Incorporated 45.65 45.33 07-02-14 0.71 Details
GB Greatbatch, Inc. 48.62 49.80 07-01-14 -2.37 Details
MINI Mobile Mini, Inc. 46.00 48.85 07-01-14 -5.83 Details
SMM Salient Midstream Common Shares 29.18 29.60 06-30-14 -1.42 Details
FTNT Fortinet, Inc. 24.24 25.13 06-30-14 -3.54 Details
WPX WPX Energy, Inc. 22.72 23.91 06-30-14 -4.98 Details
PEGI Pattern Energy Group Inc. 33.26 33.11 06-30-14 0.45 Details
MCS The Marcus Corporation 19.41 18.44 06-27-14 5.26 Details
HUBG Hub Group Inc 50.19 50.27 06-27-14 -0.16 Details
KOG Kodiak Oil & Gas Corp. 14.79 14.45 06-27-14 2.35 Details
NHF NexPoint Credit Strategies Fund 11.98 12.13 06-27-14 -1.24 Details
NGL NGL Energy Partners LP 43.59 43.55 06-26-14 0.09 Details
MPWR Monolithic Power Systems Inc. 42.10 41.62 06-26-14 1.15 Details
JONE Jones Energy, Inc. 19.44 19.74 06-26-14 -1.52 Details
DRII Diamond Resorts International, Inc. 22.55 23.31 06-26-14 -3.26 Details
PDS Precision Drilling Corporation 14.03 13.95 06-26-14 0.57 Details
RES RPC Inc. 23.46 23.30 06-25-14 0.69 Details
UEIC Universal Electronics Inc. 49.52 48.02 06-25-14 3.12 Details
SIMO Silicon Motion Technology Corp. 22.26 18.84 06-25-14 18.15 Details
SANM Sanmina Corporation 22.93 22.85 06-25-14 0.35 Details
PTEN Patterson-UTI Energy Inc 34.98 34.09 06-25-14 2.61 Details
CJES C&J Energy Services, Inc. 32.38 32.81 06-25-14 -1.31 Details
LPG Dorian LPG Ltd. 22.63 23.33 06-24-14 -3.00 Details
JBLU JetBlue Airways Corporation 10.66 10.41 06-24-14 2.40 Details
ERF Enerplus Corporation 24.00 23.91 06-24-14 0.38 Details
CDW CDW Corporation 32.01 31.76 06-24-14 0.79 Details
HOLI HollySys Automation Technologies, L 21.84 23.67 06-24-14 -7.73 Details
FTK Flotek Industries Inc. 31.29 31.54 06-24-14 -0.79 Details
TAHO Tahoe Resources Inc. 27.18 25.68 06-23-14 5.84 Details
CSTM Constellium N.V 31.65 32.37 06-23-14 -2.22 Details
CODE Spansion Inc. 21.90 21.40 06-23-14 2.34 Details
XRS TAL Education Group 28.53 26.99 06-23-14 5.71 Details
SEM Select Medical Holdings Corporation 15.58 15.70 06-23-14 -0.76 Details
PAH Platform Specialty Products Corpora 27.14 27.40 06-23-14 -0.95 Details
ORM Owens Realty Mortgage, Inc. 18.80 19.85 06-23-14 -5.29 Details
SUNE SunEdison, Inc. 23.06 22.21 06-23-14 3.83 Details
SQBG Sequential Brands Group, Inc. 14.02 11.43 06-23-14 22.66 Details
CRK Comstock Resources Inc. 27.74 28.82 06-20-14 -3.75 Details
ARRS Arris Enterprises, Inc. 31.61 33.50 06-20-14 -5.64 Details
PES Pioneer Energy Services Corp. 18.01 17.10 06-20-14 5.32 Details
PNFP Pinnacle Financial Partners Inc. 38.58 37.12 06-13-14 3.93 Details
ICON Iconix Brand Group, Inc. 42.57 42.75 06-13-14 -0.42 Details
SSNC SS&C Technologies Holdings, Inc 44.34 44.96 06-13-14 -1.38 Details
FINL Finish Line Inc. 29.47 29.18 06-13-14 0.99 Details
BR Broadridge Financial Solutions, Inc 40.87 40.76 06-13-14 0.27 Details
NVDA NVIDIA Corporation 19.11 19.54 06-13-14 -2.20 Details
VNCE Vince Holding Corp 35.62 34.95 06-13-14 1.92 Details
MED Medifast Inc. 31.48 32.26 06-11-14 -2.42 Details
AKRX Akorn, Inc. 33.11 28.17 06-02-14 17.54 Details
VLP Valero Energy Partners LP 51.42 43.20 05-27-14 19.03 Details
SLCA U.S. Silica Holdings, Inc. 55.81 42.24 04-21-14 32.13 Details
PSXP Phillips 66 Partners LP 74.86 40.92 02-10-14 82.94 Details


Recently Closed Positions:

Ticker Name Gain Eixt Price Exit Date Details
OMAB Grupo Aeroportuario del Centro Norte -0.16 32.10 07-09-14 Details
WNC Wabash National Corp. -3.76 13.84 07-09-14 Details
MEI Methode Electronics, Inc. -8.00 35.45 07-09-14 Details
PJC Piper Jaffray Companies 9.89 51.12 07-08-14 Details
NVGS Navigator Holdings Ltd. -8.00 27.48 07-08-14 Details
View All Closed Positions >>>